Impacts TAF Board INFO
FOR SITUATIONAL AWARENESS. NOT TO BE USED FOR FLIGHT PLANNING PURPOSES.
IDs:

KBOS - Boston/Logan Intl, MA, US

Issued at 0223 UTC 23 May 2018
Updated at 0258 UTC 23 May 2018
Potential Impact None Slight Moderate High
Time0254Z 23/03Z 23/04Z 23/05Z 23/06Z 23/07Z 23/08Z 23/09Z 23/10Z 23/11Z 23/12Z 23/13Z 23/14Z 23/15Z>>
Type OBS PRVL PRVL PRVL PRVL PRVL PRVL PRVL PRVL PRVL PRVL PRVL PRVL PRVL
VIS 10 >6 >6 >6 >6 6 6 6 6 6 6 >6 >6 >6
CIG 34 40 25 25 25 15 15 15 15 40 40 -- -- --
Cover OVC OVC BKN BKN BKN BKN BKN BKN BKN BKN BKN SCT SCT SCT
FltCat VFR VFR MVFR MVFR MVFR MVFR MVFR MVFR MVFR VFR VFR VFR VFR VFR
WX -- VCSH -- -- -- BR BR BR BR BR BR -- -- --
WDir 190 190 190 190 190 210 210 210 210 260 260 290 290 290
WSpd 11 7 6 6 6 5 5 5 5 6 6 6 6 6
WGst -- -- -- -- -- -- -- -- -- -- -- -- -- --

Raw TAF
KBOS 230223Z 2302/2406 19007KT P6SM VCSH SCT025 OVC040
  FM230400 19006KT P6SM BKN025
  FM230700 21005KT 6SM BR BKN015
  FM231100 26006KT 6SM BR BKN040
  FM231300 29006KT P6SM SCT120
  FM231700 04006KT P6SM FEW250


Raw METAR
KBOS 230254Z 19011KT 10SM FEW023 OVC034 12/10 A2997 RMK AO2 SLP148 60001 T01220100 58018
KBOS 230154Z 19008KT 10SM FEW024 OVC039 13/09 A3000 RMK AO2 SLP157 T01280089
KBOS 230054Z 21009KT 10SM FEW023 OVC043 14/10 A3001 RMK AO2 RAE43 SLP162 P0001 T01390100
KBOS 222354Z 24009KT 10SM -RA FEW023 OVC050 14/09 A3002 RMK AO2 RAB2255 SLP166 P0000 60001 T01440089 10161 20139 58014

METAR Board
Radar Display
Forecast Discussion

FOR SITUATIONAL AWARENESS. NOT TO BE USED FOR FLIGHT PLANNING PURPOSES.